KMSN

Dane County Regional-Truax Field Airport

Madison, Wisconsin, USA
KMSN 221140Z 2212/2312 VRB03KT P6SM SKC FM221500 09006KT P6SM SKC FM221700 14006KT P6SM FEW250 FM222100 17006KT P6SM FEW200 FM230300 VRB03KT P6SM FEW250
Issued Valid From Valid To
Sep-22 @ 11:40 UTC
(3 hours ago)
Sep-22 @ 12:00 UTC
(3 hours ago)
Sep-23 @ 12:00 UTC
(in 21 hours)
to
to
to
to
to
KMSN 221140Z 2212/2312 VRB03KT P6SM SKC FM221500 09006KT P6SM SKC FM221700 14006KT P6SM FEW250 FM222100 17006KT P6SM FEW200 FM230300 VRB03KT P6SM FEW250
Issued Sep-22 @ 11:40 UTC
(3 hours ago)
Valid From Sep-22 @ 12:00 UTC
(3 hours ago)
Valid To Sep-23 @ 12:00 UTC
(in 21 hours)
-
-
-
-
-